Time;durP1;ratioP1;P1;durP2;ratioP2;P2;SDS_P1;SDS_P2;PMS_P1;PMS_P2;Temp;Humidity;BMP_temperature;BMP_pressure;BME280_temperature;BME280_humidity;BME280_pressure;Samples;Min_cycle;Max_cycle;Signal;HPM_P1;HPM_P2
2022/05/21 08:32:23;;;;;;;2.10;1.90;;;21.90;33.60;;;;;;4908048;29;20278;-87
2022/05/21 08:38:32;;;;;;;2.90;2.17;;;22.60;34.10;;;;;;4841652;29;20216;-87
2022/05/21 08:41:03;;;;;;;2.70;2.30;;;22.50;34.20;;;;;;4851710;29;20828;-89
2022/05/21 08:43:50;;;;;;;2.03;1.75;;;23.70;30.60;;;;;;4895663;29;20204;-85
2022/05/21 08:46:36;;;;;;;2.47;1.90;;;25.50;23.20;;;;;;4940167;29;20324;-82
2022/05/21 08:49:09;;;;;;;2.65;1.60;;;27.30;16.90;;;;;;4956141;29;20205;-83
2022/05/21 08:51:44;;;;;;;2.20;2.00;;;29.30;14.60;;;;;;4953053;28;20204;-82
2022/05/21 08:54:22;;;;;;;2.90;2.25;;;29.80;11.50;;;;;;4945895;29;20204;-83
2022/05/21 08:56:59;;;;;;;2.35;2.00;;;30.80;10.60;;;;;;4950534;29;20283;-82
2022/05/21 08:59:37;;;;;;;2.63;2.30;;;32.00;10.30;;;;;;4947967;29;20227;-83
2022/05/21 09:02:06;;;;;;;2.70;2.20;;;33.20;7.80;;;;;;4953915;29;20267;-83
2022/05/21 09:04:34;;;;;;;2.38;2.28;;;35.00;6.10;;;;;;4954196;29;20201;-82
2022/05/21 09:07:24;;;;;;;2.85;2.20;;;34.30;4.90;;;;;;4955690;28;20699;-86
2022/05/21 09:10:11;;;;;;;3.03;2.72;;;34.80;4.30;;;;;;5046173;28;20637;-87
2022/05/21 09:12:59;;;;;;;2.50;2.30;;;35.10;3.20;;;;;;5036896;28;20193;-84
2022/05/21 09:18:17;;;;;;;10.40;6.97;;;34.80;2.00;;;;;;5055464;28;20209;-84
2022/05/21 09:21:05;;;;;;;7.82;5.10;;;34.60;2.70;;;;;;5052676;28;20204;-83
2022/05/21 09:24:05;;;;;;;4.50;4.07;;;33.80;3.40;;;;;;5048627;28;20197;-84
2022/05/21 09:26:47;;;;;;;5.47;2.45;;;34.40;2.70;;;;;;5057891;28;20245;-85
2022/05/21 09:29:20;;;;;;;3.38;2.65;;;33.30;3.50;;;;;;5053620;28;20219;-84
2022/05/21 09:32:21;;;;;;;3.28;2.75;;;33.50;3.90;;;;;;5055069;28;20209;-85
2022/05/21 09:35:05;;;;;;;4.20;3.78;;;33.60;3.80;;;;;;4974820;28;20236;-85
2022/05/21 09:37:37;;;;;;;2.83;2.38;;;34.20;2.80;;;;;;5043328;28;20206;-84
2022/05/21 09:40:25;;;;;;;4.28;2.50;;;34.90;2.70;;;;;;5054615;28;20201;-85
2022/05/21 09:46:27;;;;;;;4.70;3.30;;;35.20;3.40;;;;;;5048583;28;20220;-85
2022/05/21 09:49:23;;;;;;;3.63;2.60;;;35.70;3.10;;;;;;5023723;28;20686;-86
2022/05/21 09:52:05;;;;;;;3.28;3.08;;;35.20;4.00;;;;;;5051726;28;20202;-86
2022/05/21 09:54:40;;;;;;;3.13;2.90;;;36.00;3.30;;;;;;5045115;28;21728;-87
2022/05/21 09:57:07;;;;;;;3.50;3.28;;;35.40;1.90;;;;;;5041149;28;20764;-86
2022/05/21 09:59:41;;;;;;;3.38;3.17;;;36.10;1.40;;;;;;5039546;28;20219;-86
2022/05/21 10:02:20;;;;;;;3.22;2.92;;;36.60;1.40;;;;;;5042834;28;20239;-86
2022/05/21 10:04:56;;;;;;;3.92;2.78;;;35.90;1.50;;;;;;5042410;28;20212;-86
2022/05/21 10:11:03;;;;;;;3.38;3.00;;;35.30;2.00;;;;;;5044159;28;20263;-87
2022/05/21 10:13:43;;;;;;;3.33;2.88;;;35.20;2.30;;;;;;5048945;28;20224;-84
2022/05/21 10:16:25;;;;;;;3.28;3.08;;;35.50;2.60;;;;;;5050324;28;20217;-84
2022/05/21 10:19:00;;;;;;;2.53;2.42;;;34.80;3.50;;;;;;5053380;28;20280;-85
2022/05/21 10:21:48;;;;;;;2.67;2.47;;;34.40;3.40;;;;;;5047150;28;21897;-85
2022/05/21 10:24:42;;;;;;;2.70;2.50;;;34.00;3.00;;;;;;5056263;28;20223;-85
2022/05/21 10:27:21;;;;;;;3.15;2.35;;;33.90;4.50;;;;;;5049584;28;20233;-83
2022/05/21 10:30:06;;;;;;;2.10;2.00;;;33.40;6.30;;;;;;5042983;28;20628;-84
2022/05/21 10:32:57;;;;;;;1.90;1.80;;;32.90;4.80;;;;;;5053112;28;20193;-84
2022/05/21 10:35:38;;;;;;;2.97;2.10;;;33.10;3.70;;;;;;5052648;28;20207;-84
2022/05/21 10:38:42;;;;;;;2.17;1.90;;;33.40;4.00;;;;;;5047582;28;20213;-84
2022/05/21 10:41:21;;;;;;;2.67;1.98;;;33.30;4.10;;;;;;5044019;28;20221;-82
2022/05/21 10:44:19;;;;;;;2.35;2.15;;;33.40;4.00;;;;;;5044316;28;20683;-83
2022/05/21 10:46:56;;;;;;;2.70;1.90;;;32.90;5.10;;;;;;5042519;28;20243;-83
2022/05/21 10:50:03;;;;;;;2.58;2.00;;;33.20;5.30;;;;;;5045966;28;20206;-83
2022/05/21 10:52:45;;;;;;;2.20;2.05;;;33.10;4.40;;;;;;5044657;28;20201;-82
2022/05/21 10:55:19;;;;;;;1.80;1.70;;;32.80;5.00;;;;;;5051074;28;20193;-80
2022/05/21 10:58:09;;;;;;;2.75;2.17;;;32.10;4.50;;;;;;5051242;28;20584;-86
2022/05/21 11:00:52;;;;;;;2.90;1.90;;;31.20;5.70;;;;;;5030398;28;20281;-86
2022/05/21 11:03:44;;;;;;;4.10;1.73;;;30.90;7.00;;;;;;5031734;28;20197;-86
2022/05/21 11:06:26;;;;;;;2.00;1.80;;;29.20;8.70;;;;;;5029250;28;20213;-86
2022/05/21 11:09:21;;;;;;;2.55;1.60;;;28.70;9.70;;;;;;5045403;28;20202;-86
2022/05/21 11:11:59;;;;;;;3.10;1.52;;;28.30;9.70;;;;;;5049784;28;20208;-86
2022/05/21 11:14:43;;;;;;;1.50;1.23;;;27.80;10.60;;;;;;5045887;28;20201;-86
2022/05/21 11:17:30;;;;;;;1.70;1.20;;;27.50;13.40;;;;;;5039692;28;20530;-88
2022/05/21 11:20:02;;;;;;;2.55;1.20;;;26.90;13.10;;;;;;5053670;28;20204;-87
2022/05/21 11:22:37;;;;;;;3.45;1.40;;;26.60;14.10;;;;;;5047467;28;20251;-87
2022/05/21 11:25:18;;;;;;;1.67;1.38;;;26.40;14.80;;;;;;5054013;28;20243;-87
2022/05/21 11:27:51;;;;;;;2.30;1.20;;;26.20;14.70;;;;;;5056823;28;20225;-87
2022/05/21 11:30:29;;;;;;;1.55;1.42;;;26.10;14.70;;;;;;5038494;28;20198;-87
2022/05/21 11:39:23;;;;;;;1.75;1.00;;;25.70;14.50;;;;;;5055626;28;20266;-89
2022/05/21 11:42:29;;;;;;;1.83;1.20;;;25.70;14.50;;;;;;5057441;28;20216;-89
2022/05/21 11:45:02;;;;;;;1.00;0.90;;;25.70;14.50;;;;;;5044576;28;20654;-90
2022/05/21 11:47:52;;;;;;;1.98;1.25;;;25.90;14.60;;;;;;5059880;28;20229;-89
2022/05/21 11:50:24;;;;;;;2.40;1.10;;;25.50;14.40;;;;;;5055477;28;20205;-89
2022/05/21 11:53:10;;;;;;;1.65;1.50;;;25.40;14.40;;;;;;5052099;28;20221;-89
2022/05/21 11:56:16;;;;;;;2.50;1.40;;;25.40;14.30;;;;;;5053799;28;20230;-89
2022/05/21 11:59:12;;;;;;;1.15;1.05;;;25.40;14.30;;;;;;5053630;28;20202;-89
2022/05/21 12:02:25;;;;;;;1.58;1.20;;;25.40;12.80;;;;;;5038100;28;20562;-89
2022/05/21 12:05:00;;;;;;;1.52;0.98;;;25.40;14.30;;;;;;4956415;29;20247;-89
2022/05/21 12:07:56;;;;;;;1.50;1.10;;;25.30;14.30;;;;;;4962525;28;20229;-89
2022/05/21 12:11:08;;;;;;;2.35;1.15;;;25.20;14.20;;;;;;4893382;29;20213;-89
2022/05/21 12:13:52;;;;;;;2.13;1.20;;;25.20;14.20;;;;;;4905271;29;20240;-91
2022/05/21 12:16:49;;;;;;;1.17;1.08;;;25.20;14.30;;;;;;4910367;29;20214;-89
2022/05/21 12:20:09;;;;;;;1.27;1.17;;;25.10;14.20;;;;;;4889141;29;20215;-89
2022/05/21 12:26:17;;;;;;;2.65;0.90;;;25.00;15.00;;;;;;4895537;29;20270;-91
2022/05/21 12:28:52;;;;;;;2.10;0.93;;;24.70;15.10;;;;;;4908515;29;20213;-91
2022/05/21 12:31:25;;;;;;;0.95;0.95;;;24.70;16.20;;;;;;4941147;29;20644;-91
2022/05/21 12:34:37;;;;;;;3.45;1.05;;;24.80;14.10;;;;;;4905896;29;20587;-92
2022/05/21 12:37:10;;;;;;;3.28;1.13;;;24.90;14.10;;;;;;4919138;29;20222;-92
2022/05/21 12:39:49;;;;;;;2.03;1.00;;;25.10;14.20;;;;;;4920562;28;20271;-90
2022/05/21 12:43:05;;;;;;;2.35;1.13;;;25.30;14.30;;;;;;5003505;28;20295;-90
2022/05/21 12:45:36;;;;;;;1.10;1.00;;;25.30;14.30;;;;;;5003312;28;20232;-90
2022/05/21 12:48:13;;;;;;;1.75;1.10;;;25.20;12.30;;;;;;5003473;28;20447;-90
2022/05/21 12:50:56;;;;;;;1.83;0.90;;;25.10;14.20;;;;;;4996433;28;20204;-90
2022/05/21 12:53:40;;;;;;;1.13;1.00;;;25.20;14.20;;;;;;5042015;28;20281;-90
2022/05/21 12:56:21;;;;;;;0.85;0.80;;;25.00;13.20;;;;;;5055145;28;20210;-90
2022/05/21 12:59:09;;;;;;;2.15;1.00;;;25.10;12.40;;;;;;5047103;28;20205;-90
2022/05/21 13:01:43;;;;;;;1.05;0.90;;;24.90;12.20;;;;;;5064714;28;20202;-90
2022/05/21 13:04:29;;;;;;;1.00;1.00;;;24.90;13.50;;;;;;5066107;28;20210;-90
2022/05/21 13:07:12;;;;;;;1.25;1.10;;;24.80;14.00;;;;;;5045169;28;20245;-89
2022/05/21 13:09:53;;;;;;;1.63;1.10;;;24.90;14.10;;;;;;5052880;28;20664;-90
2022/05/21 13:15:30;;;;;;;1.67;1.20;;;24.90;14.20;;;;;;5058870;28;20198;-89
2022/05/21 13:21:02;;;;;;;2.67;1.40;;;24.80;14.10;;;;;;5050766;28;20259;-91
2022/05/21 13:23:49;;;;;;;1.73;1.10;;;24.80;14.30;;;;;;5028382;28;20214;-89
2022/05/21 13:26:20;;;;;;;1.35;1.00;;;24.90;15.10;;;;;;5057013;28;20285;-89
2022/05/21 13:29:15;;;;;;;2.22;1.00;;;25.00;15.30;;;;;;5033299;28;20297;-89
2022/05/21 13:32:24;;;;;;;1.70;1.17;;;25.00;15.80;;;;;;5039651;28;20545;-89
2022/05/21 13:35:20;;;;;;;1.00;0.90;;;24.80;14.10;;;;;;5051090;28;20202;-91
2022/05/21 13:37:50;;;;;;;3.05;1.10;;;24.70;14.00;;;;;;5047711;28;20226;-91
2022/05/21 13:40:22;;;;;;;1.90;1.27;;;24.70;14.00;;;;;;5052799;28;20210;-91
2022/05/21 13:42:52;;;;;;;1.58;1.00;;;24.80;14.10;;;;;;5038506;28;20194;-92
2022/05/21 13:45:31;;;;;;;1.52;1.10;;;24.80;14.10;;;;;;5055165;28;20696;-91
2022/05/21 13:48:10;;;;;;;1.77;1.08;;;24.80;14.10;;;;;;5056311;28;20676;-92
2022/05/21 13:50:44;;;;;;;2.35;1.33;;;24.80;15.10;;;;;;5050980;28;20221;-92
2022/05/21 13:53:14;;;;;;;1.88;1.77;;;24.70;14.00;;;;;;5043951;28;20197;-91
2022/05/21 13:55:57;;;;;;;5.00;1.30;;;24.60;13.90;;;;;;5053263;28;20206;-92
2022/05/21 13:58:32;;;;;;;1.30;1.10;;;24.60;13.90;;;;;;5032467;28;20263;-91
2022/05/21 14:03:53;;;;;;;1.30;1.20;;;24.40;13.90;;;;;;5026052;28;20199;-92
2022/05/21 14:06:23;;;;;;;1.40;1.15;;;24.50;14.80;;;;;;5031526;28;20222;-91
2022/05/21 14:09:00;;;;;;;1.67;1.10;;;24.40;13.80;;;;;;5028677;28;20294;-91
2022/05/21 14:11:29;;;;;;;2.65;1.30;;;24.20;13.70;;;;;;5030460;28;20210;-91
2022/05/21 14:23:32;;;;;;;4.40;1.20;;;24.20;13.90;;;;;;4914404;29;20210;-91
2022/05/21 14:26:20;;;;;;;1.25;1.00;;;24.10;15.80;;;;;;4881281;29;20231;-91
2022/05/21 14:28:54;;;;;;;1.10;1.00;;;24.30;16.50;;;;;;4880480;29;20223;-91
2022/05/21 14:31:33;;;;;;;2.50;0.95;;;24.40;14.70;;;;;;4882328;29;20369;-91
2022/05/21 14:36:54;;;;;;;1.63;1.20;;;24.10;15.80;;;;;;4894750;29;20207;-91
2022/05/21 14:39:24;;;;;;;5.45;1.90;;;24.20;15.50;;;;;;4897569;29;20211;-91
2022/05/21 14:42:00;;;;;;;5.15;1.80;;;24.40;15.60;;;;;;4898585;29;20741;-91
2022/05/21 14:44:35;;;;;;;1.75;1.17;;;24.40;16.70;;;;;;4899646;29;20218;-91
2022/05/21 14:49:49;;;;;;;1.30;1.13;;;24.20;15.30;;;;;;4905135;29;20220;-91
2022/05/21 14:55:04;;;;;;;3.35;1.25;;;24.20;14.60;;;;;;4946672;29;20300;-91
2022/05/21 14:57:42;;;;;;;1.98;1.30;;;24.10;15.60;;;;;;4941951;28;20212;-91
2022/05/21 15:00:18;;;;;;;1.27;1.17;;;24.20;16.10;;;;;;4943317;28;20213;-91
2022/05/21 15:03:11;;;;;;;2.50;1.20;;;24.20;16.10;;;;;;5013168;28;20203;-92
2022/05/21 15:05:55;;;;;;;1.65;1.20;;;24.20;15.60;;;;;;5010128;28;20246;-91
2022/05/21 15:09:00;;;;;;;3.38;1.30;;;24.10;14.60;;;;;;5046413;28;20284;-91
2022/05/21 15:11:38;;;;;;;2.53;1.25;;;23.90;14.70;;;;;;5054200;28;20361;-90
2022/05/21 15:14:18;;;;;;;3.63;1.40;;;23.70;15.40;;;;;;5062043;28;20282;-91
2022/05/21 15:16:45;;;;;;;1.65;0.90;;;23.80;15.20;;;;;;5059866;28;20198;-91
2022/05/21 15:19:17;;;;;;;3.45;1.30;;;23.90;16.10;;;;;;5058373;28;20209;-91
2022/05/21 15:22:02;;;;;;;1.63;1.40;;;23.80;16.50;;;;;;5056822;28;20209;-91
2022/05/21 15:24:38;;;;;;;1.60;1.50;;;23.80;16.40;;;;;;5056883;28;20206;-91
2022/05/21 15:27:29;;;;;;;1.50;1.35;;;23.90;16.40;;;;;;5056141;28;20253;-91
2022/05/21 15:30:07;;;;;;;1.50;1.20;;;23.80;16.70;;;;;;5052322;28;20597;-92
2022/05/21 15:32:36;;;;;;;1.30;1.20;;;23.90;16.50;;;;;;5055602;28;20218;-91
2022/05/21 15:35:03;;;;;;;1.90;1.40;;;23.90;16.10;;;;;;5054488;28;20202;-91
2022/05/21 15:37:37;;;;;;;2.22;1.30;;;23.80;16.00;;;;;;5037701;28;20205;-91
2022/05/21 15:40:05;;;;;;;4.20;1.70;;;23.80;16.80;;;;;;5056074;28;20220;-91
2022/05/21 15:42:36;;;;;;;2.58;1.55;;;23.70;16.90;;;;;;5019032;28;20221;-91
2022/05/21 15:45:29;;;;;;;1.50;1.40;;;23.80;16.80;;;;;;5038158;28;20202;-91
2022/05/21 15:47:59;;;;;;;1.38;1.20;;;23.80;16.40;;;;;;5057540;28;20221;-91
2022/05/21 15:50:53;;;;;;;1.98;1.67;;;23.80;16.80;;;;;;5057481;28;20709;-91
2022/05/21 15:53:31;;;;;;;2.15;1.30;;;23.70;16.80;;;;;;5071920;28;20284;-91
2022/05/21 15:55:59;;;;;;;3.95;1.42;;;23.50;16.90;;;;;;5062833;28;20205;-91
2022/05/21 15:58:59;;;;;;;2.10;1.60;;;23.50;17.10;;;;;;5064846;28;20224;-91
2022/05/21 16:01:33;;;;;;;3.50;1.30;;;23.50;17.90;;;;;;5039358;28;20203;-92
2022/05/21 16:04:14;;;;;;;1.77;1.40;;;23.50;17.00;;;;;;5052248;28;20205;-91
2022/05/21 16:50:24;;;;;;;3.28;1.55;;;22.70;16.90;;;;;;4932580;29;20269;-91
2022/05/21 16:53:15;;;;;;;1.50;1.30;;;22.60;17.70;;;;;;4896685;29;20211;-91
2022/05/21 17:07:43;;;;;;;2.08;1.10;;;22.40;17.50;;;;;;4807439;29;20237;-91
2022/05/21 17:10:11;;;;;;;1.40;1.30;;;22.30;17.70;;;;;;4821976;29;20216;-90
2022/05/21 17:12:50;;;;;;;1.45;1.30;;;22.30;17.90;;;;;;4821703;29;20369;-90
2022/05/21 17:15:41;;;;;;;1.35;1.23;;;22.20;18.10;;;;;;4817535;29;20218;-91
2022/05/21 17:18:47;;;;;;;1.48;1.38;;;22.30;19.60;;;;;;4787019;30;20208;-90
2022/05/21 17:21:16;;;;;;;2.35;1.40;;;22.20;18.70;;;;;;4798856;30;20220;-91
2022/05/21 17:26:49;;;;;;;2.92;1.33;;;22.00;19.10;;;;;;4723241;30;20261;-90
2022/05/21 17:32:11;;;;;;;2.78;1.50;;;21.80;19.50;;;;;;4707824;30;20261;-92
2022/05/21 17:34:42;;;;;;;1.42;1.30;;;21.70;19.80;;;;;;4697099;30;20210;-90
2022/05/21 17:43:15;;;;;;;4.13;1.42;;;21.50;21.10;;;;;;4885750;29;20696;-91
2022/05/21 17:45:55;;;;;;;2.53;1.50;;;21.50;21.50;;;;;;4922569;29;20217;-90
2022/05/21 17:48:43;;;;;;;1.83;1.40;;;21.50;21.50;;;;;;4911909;29;20668;-90
2022/05/21 17:54:06;;;;;;;1.80;1.40;;;21.30;21.20;;;;;;4890344;29;20316;-91
2022/05/21 18:03:18;;;;;;;6.07;1.25;;;21.30;21.20;;;;;;4892341;29;20276;-90
2022/05/21 18:08:42;;;;;;;1.85;1.25;;;21.30;21.30;;;;;;4838029;29;20302;-90
2022/05/21 18:11:11;;;;;;;3.65;1.50;;;21.20;21.40;;;;;;4826241;29;20684;-90
2022/05/21 18:13:40;;;;;;;2.13;1.27;;;21.20;21.70;;;;;;4870675;29;20210;-91
2022/05/21 22:08:35;;;;;;;2.63;2.10;;;16.60;43.50;;;;;;4937657;28;20282;-87
2022/05/21 23:02:12;;;;;;;4.55;2.30;;;16.30;45.50;;;;;;4857001;29;20266;-87
2022/05/21 23:45:50;;;;;;;4.95;2.75;;;16.40;49.00;;;;;;5069440;28;20240;-88
